Time;durP1;ratioP1;P1;durP2;ratioP2;P2;SDS_P1;SDS_P2;PMS_P1;PMS_P2;Temp;Humidity;BMP_temperature;BMP_pressure;BME280_temperature;BME280_humidity;BME280_pressure;Samples;Min_cycle;Max_cycle;Signal;HPM_P1;HPM_P2
2021/04/03 00:00:53;;;;;;;2.33;1.47;;;5.10;99.90;;;;;;5045742;28;20235;-80
2021/04/03 00:03:21;;;;;;;0.90;0.73;;;5.10;99.90;;;;;;5048044;28;20198;-81
2021/04/03 00:05:47;;;;;;;2.87;2.10;;;5.10;99.90;;;;;;5037376;28;20206;-78
2021/04/03 00:08:13;;;;;;;2.00;1.20;;;5.10;99.90;;;;;;5047957;28;20205;-80
2021/04/03 00:10:54;;;;;;;2.77;1.33;;;5.10;99.90;;;;;;5045580;28;20963;-82
2021/04/03 00:13:23;;;;;;;1.73;1.27;;;5.20;99.90;;;;;;5045165;28;20178;-81
2021/04/03 00:15:48;;;;;;;0.83;0.60;;;5.20;99.90;;;;;;5044383;28;20935;-80
2021/04/03 00:18:15;;;;;;;1.67;0.73;;;5.20;99.90;;;;;;5045878;28;20194;-80
2021/04/03 00:20:42;;;;;;;2.97;1.47;;;5.20;99.90;;;;;;5046683;28;20632;-82
2021/04/03 00:23:07;;;;;;;2.73;1.97;;;5.20;99.90;;;;;;5045492;28;20186;-81
2021/04/03 00:25:34;;;;;;;3.13;1.10;;;5.20;99.90;;;;;;5046343;28;20864;-80
2021/04/03 00:28:00;;;;;;;1.63;0.83;;;5.20;99.90;;;;;;5046992;28;20201;-80
2021/04/03 00:30:26;;;;;;;3.13;1.43;;;5.20;99.90;;;;;;5045532;28;20265;-81
2021/04/03 00:32:54;;;;;;;1.13;0.63;;;5.20;99.90;;;;;;5045326;28;20182;-80
2021/04/03 00:35:23;;;;;;;3.17;1.17;;;5.20;99.90;;;;;;5043933;28;20204;-80
2021/04/03 00:37:49;;;;;;;2.20;1.03;;;5.20;99.90;;;;;;5045164;28;20208;-80
2021/04/03 00:40:23;;;;;;;1.60;0.80;;;5.10;99.90;;;;;;5045725;28;20293;-80
2021/04/03 00:42:48;;;;;;;3.80;1.30;;;5.30;99.90;;;;;;5046678;28;20580;-80
2021/04/03 00:45:16;;;;;;;2.33;1.63;;;5.20;99.90;;;;;;5045933;28;20206;-82
2021/04/03 00:47:42;;;;;;;3.10;0.90;;;5.10;99.90;;;;;;5045080;28;20853;-81
2021/04/03 00:50:10;;;;;;;3.30;1.07;;;5.20;99.90;;;;;;5049084;28;20553;-80
2021/04/03 00:52:36;;;;;;;5.37;1.47;;;5.30;99.90;;;;;;5048741;28;20174;-80
2021/04/03 00:55:04;;;;;;;1.40;1.23;;;5.30;99.90;;;;;;5048480;28;20969;-80
2021/04/03 00:57:30;;;;;;;0.80;0.73;;;5.30;99.90;;;;;;5048088;28;20293;-81
2021/04/03 00:59:56;;;;;;;2.73;0.73;;;5.30;99.90;;;;;;5048755;28;20996;-80
2021/04/03 01:02:21;;;;;;;2.43;1.33;;;5.30;99.90;;;;;;5049715;28;20646;-80
2021/04/03 01:04:47;;;;;;;1.23;0.80;;;5.30;99.90;;;;;;5048165;28;20255;-80
2021/04/03 01:07:13;;;;;;;2.20;0.73;;;5.20;99.90;;;;;;5048038;28;20599;-81
2021/04/03 01:09:39;;;;;;;2.17;1.10;;;5.20;99.90;;;;;;5049389;28;20204;-80
2021/04/03 01:12:16;;;;;;;2.50;1.00;;;5.20;99.90;;;;;;5048395;28;20185;-80
2021/04/03 01:15:02;;;;;;;4.83;1.50;;;5.20;99.90;;;;;;5048952;28;20193;-80
2021/04/03 01:17:47;;;;;;;1.73;0.60;;;5.20;99.90;;;;;;5048526;28;21202;-80
2021/04/03 01:20:38;;;;;;;1.23;1.13;;;5.10;99.90;;;;;;5049928;28;20274;-80
2021/04/03 01:23:40;;;;;;;5.27;1.37;;;5.10;99.90;;;;;;5048058;28;20202;-80
2021/04/03 01:26:32;;;;;;;1.27;0.90;;;5.00;99.90;;;;;;5048750;28;20288;-80
2021/04/03 01:29:13;;;;;;;6.10;1.70;;;5.00;99.90;;;;;;5033112;28;21250;-80
2021/04/03 01:31:39;;;;;;;4.40;0.97;;;4.90;99.90;;;;;;5047076;28;20178;-80
2021/04/03 01:34:15;;;;;;;3.27;0.97;;;4.90;99.90;;;;;;5049121;28;20186;-79
2021/04/03 01:36:42;;;;;;;1.30;1.20;;;4.90;99.90;;;;;;5049201;28;20207;-79
2021/04/03 01:39:13;;;;;;;2.17;1.10;;;4.80;99.90;;;;;;5047883;28;20674;-81
2021/04/03 01:41:42;;;;;;;1.47;0.63;;;4.80;99.90;;;;;;5047013;28;20552;-81
2021/04/03 01:44:11;;;;;;;2.17;0.77;;;4.80;99.90;;;;;;5046821;28;20209;-80
2021/04/03 01:46:39;;;;;;;2.10;0.77;;;4.80;99.90;;;;;;5047533;28;20182;-80
2021/04/03 01:49:11;;;;;;;1.33;1.00;;;4.70;99.90;;;;;;5047044;28;20198;-80
2021/04/03 01:51:40;;;;;;;1.40;0.60;;;4.70;99.90;;;;;;5040782;28;20189;-79
2021/04/03 01:54:10;;;;;;;5.90;1.57;;;4.70;99.90;;;;;;5048138;28;20209;-81
2021/04/03 01:56:37;;;;;;;3.63;0.83;;;4.70;99.90;;;;;;5046298;28;20178;-80
2021/04/03 01:59:05;;;;;;;3.60;0.90;;;4.70;99.90;;;;;;5047988;28;20182;-80
2021/04/03 02:01:32;;;;;;;2.03;1.50;;;4.60;99.90;;;;;;5045904;28;20189;-79
2021/04/03 02:03:59;;;;;;;1.60;1.43;;;4.50;99.90;;;;;;5046993;28;20268;-80
2021/04/03 02:06:24;;;;;;;2.70;1.17;;;4.50;99.90;;;;;;5045730;28;20209;-81
2021/04/03 02:08:50;;;;;;;3.50;1.07;;;4.40;99.90;;;;;;5047985;28;20206;-80
2021/04/03 02:11:17;;;;;;;2.53;1.40;;;4.20;99.90;;;;;;5046627;28;20182;-80
2021/04/03 02:13:43;;;;;;;0.97;0.77;;;4.20;99.90;;;;;;5046059;28;20174;-80
2021/04/03 02:16:09;;;;;;;0.77;0.47;;;4.10;99.90;;;;;;5046326;28;20273;-79
2021/04/03 02:18:37;;;;;;;2.53;0.77;;;4.00;99.90;;;;;;5045609;28;20221;-80
2021/04/03 02:21:05;;;;;;;3.13;0.80;;;3.90;99.90;;;;;;5039164;28;20182;-80
2021/04/03 02:23:35;;;;;;;3.00;1.07;;;4.00;99.90;;;;;;5045721;28;20320;-79
2021/04/03 02:26:02;;;;;;;1.40;0.73;;;3.90;99.90;;;;;;5044403;28;20202;-79
2021/04/03 02:28:28;;;;;;;4.30;1.33;;;3.90;99.90;;;;;;5046901;28;20560;-81
2021/04/03 02:30:54;;;;;;;2.13;0.80;;;3.90;99.90;;;;;;5045764;28;20696;-80
2021/04/03 02:33:20;;;;;;;1.60;0.73;;;3.80;99.90;;;;;;5047322;28;20189;-80
2021/04/03 02:35:46;;;;;;;0.53;0.50;;;3.80;99.90;;;;;;5046418;28;20182;-80
2021/04/03 02:38:13;;;;;;;0.50;0.43;;;3.60;99.90;;;;;;5045031;28;20201;-80
2021/04/03 02:40:40;;;;;;;3.60;1.40;;;3.50;99.90;;;;;;5045155;28;20239;-80
2021/04/03 02:43:25;;;;;;;3.83;1.17;;;3.50;99.90;;;;;;5044758;28;20733;-80
2021/04/03 02:46:17;;;;;;;1.33;1.17;;;3.50;99.90;;;;;;5045543;28;20202;-80
2021/04/03 02:48:49;;;;;;;2.70;0.90;;;3.30;99.90;;;;;;5044274;28;20641;-80
2021/04/03 02:51:20;;;;;;;2.27;0.60;;;3.20;99.90;;;;;;5036531;28;20228;-80
2021/04/03 02:53:47;;;;;;;3.90;1.23;;;3.20;99.90;;;;;;5044957;28;20277;-80
2021/04/03 02:56:14;;;;;;;5.83;1.60;;;3.10;99.90;;;;;;5047591;28;20235;-81
2021/04/03 02:58:40;;;;;;;3.03;1.13;;;3.10;99.90;;;;;;5038311;28;20194;-80
2021/04/03 03:01:11;;;;;;;1.93;0.87;;;3.00;99.90;;;;;;5046598;28;20186;-79
2021/04/03 03:03:37;;;;;;;1.83;1.23;;;3.00;99.90;;;;;;5046213;28;20178;-79
2021/04/03 03:06:04;;;;;;;3.40;0.67;;;3.10;99.90;;;;;;5046162;28;20265;-80
2021/04/03 03:08:30;;;;;;;3.03;1.10;;;3.10;99.90;;;;;;5045314;28;20552;-80
2021/04/03 03:10:57;;;;;;;1.70;0.97;;;3.10;99.90;;;;;;5045801;28;20183;-80
2021/04/03 03:13:25;;;;;;;4.43;0.90;;;3.00;99.90;;;;;;5047832;28;20683;-79
2021/04/03 03:15:50;;;;;;;3.93;1.87;;;2.90;99.90;;;;;;5045178;28;20179;-81
2021/04/03 03:18:17;;;;;;;1.43;0.60;;;2.90;99.90;;;;;;5046165;28;20205;-80
2021/04/03 03:20:44;;;;;;;0.40;0.40;;;2.70;99.90;;;;;;5045460;28;20182;-80
2021/04/03 03:23:12;;;;;;;5.50;1.07;;;2.70;99.90;;;;;;5047970;28;20570;-80
2021/04/03 03:25:39;;;;;;;2.97;1.07;;;2.70;99.90;;;;;;5045441;28;20206;-79
2021/04/03 03:28:06;;;;;;;4.57;1.33;;;2.60;99.90;;;;;;5046480;28;20240;-81
2021/04/03 03:30:32;;;;;;;1.03;0.83;;;2.60;99.90;;;;;;5045292;28;20175;-81
2021/04/03 03:32:58;;;;;;;1.47;0.63;;;2.50;99.90;;;;;;5046267;28;20186;-80
2021/04/03 03:35:24;;;;;;;2.17;1.10;;;2.50;99.90;;;;;;5046913;28;20212;-81
2021/04/03 03:37:50;;;;;;;7.73;1.50;;;2.50;99.90;;;;;;5047669;28;20209;-80
2021/04/03 03:40:17;;;;;;;2.70;1.00;;;2.60;99.90;;;;;;5045763;28;20182;-81
2021/04/03 03:42:45;;;;;;;1.13;0.57;;;2.60;99.90;;;;;;5045073;28;20578;-80
2021/04/03 03:45:11;;;;;;;3.37;0.70;;;2.70;99.90;;;;;;5046395;28;21173;-80
2021/04/03 03:47:38;;;;;;;1.70;0.87;;;2.70;99.90;;;;;;5045959;28;20232;-80
2021/04/03 03:50:05;;;;;;;1.50;0.53;;;2.80;99.90;;;;;;5046383;28;20243;-81
2021/04/03 03:52:31;;;;;;;2.37;1.00;;;2.80;99.90;;;;;;5044406;28;20178;-80
2021/04/03 03:54:57;;;;;;;1.37;1.00;;;2.80;99.90;;;;;;5044026;28;20273;-80
2021/04/03 03:57:22;;;;;;;4.00;1.33;;;2.80;99.90;;;;;;5044261;28;20255;-80
2021/04/03 03:59:48;;;;;;;3.20;1.20;;;2.70;99.90;;;;;;5042164;28;21122;-80
2021/04/03 04:02:13;;;;;;;1.10;1.00;;;2.60;99.90;;;;;;5046579;28;20181;-81
2021/04/03 04:04:39;;;;;;;2.27;0.50;;;2.50;99.90;;;;;;5044432;28;20202;-79
2021/04/03 04:07:05;;;;;;;1.33;0.97;;;2.50;99.90;;;;;;5044480;28;20209;-80
2021/04/03 04:09:31;;;;;;;1.67;1.20;;;2.50;99.90;;;;;;5040790;28;20198;-81
2021/04/03 04:12:06;;;;;;;2.07;1.27;;;2.40;99.90;;;;;;5045300;28;20252;-80
2021/04/03 04:14:33;;;;;;;1.90;0.47;;;2.30;99.90;;;;;;5042854;28;20865;-81
2021/04/03 04:16:58;;;;;;;4.33;1.50;;;2.30;99.90;;;;;;5044492;28;20293;-80
2021/04/03 04:19:24;;;;;;;2.67;1.20;;;2.30;99.90;;;;;;5039957;28;20301;-81
2021/04/03 04:21:50;;;;;;;2.03;1.13;;;2.30;99.90;;;;;;5044335;28;21105;-81
2021/04/03 04:24:15;;;;;;;2.63;1.23;;;2.20;99.90;;;;;;5047497;28;20224;-80
2021/04/03 04:26:41;;;;;;;1.77;0.83;;;2.20;99.90;;;;;;5049434;28;20221;-80
2021/04/03 04:29:06;;;;;;;4.63;1.13;;;2.20;99.90;;;;;;5049564;28;20686;-79
2021/04/03 04:31:32;;;;;;;2.23;1.30;;;2.10;99.90;;;;;;5046179;28;20835;-81
2021/04/03 04:33:58;;;;;;;4.27;1.03;;;2.20;99.90;;;;;;5048780;28;20272;-80
2021/04/03 04:36:23;;;;;;;2.43;1.53;;;2.10;99.90;;;;;;5048514;28;20178;-80
2021/04/03 04:38:49;;;;;;;1.33;0.83;;;2.10;99.90;;;;;;5049297;28;20182;-80
2021/04/03 04:41:14;;;;;;;2.53;0.67;;;2.10;99.90;;;;;;5048816;28;20194;-80
2021/04/03 04:43:40;;;;;;;7.93;1.70;;;2.10;99.90;;;;;;5048720;28;20182;-79
2021/04/03 04:46:06;;;;;;;0.93;0.70;;;2.00;99.90;;;;;;5047544;28;20217;-79
2021/04/03 04:48:31;;;;;;;1.77;0.73;;;2.10;99.90;;;;;;5049476;28;20293;-79
2021/04/03 04:50:57;;;;;;;1.17;0.60;;;2.10;99.90;;;;;;5048847;28;20856;-81
2021/04/03 04:53:23;;;;;;;1.57;0.70;;;2.10;99.90;;;;;;5050455;28;20193;-81
2021/04/03 04:55:48;;;;;;;3.13;0.83;;;2.10;99.90;;;;;;5047616;28;20178;-80
2021/04/03 04:58:14;;;;;;;3.83;1.37;;;2.10;99.90;;;;;;5049160;28;20246;-80
2021/04/03 05:00:39;;;;;;;4.27;1.17;;;2.30;99.90;;;;;;5048613;28;20216;-80
2021/04/03 05:03:05;;;;;;;3.37;1.00;;;2.30;99.90;;;;;;5048746;28;20190;-80
2021/04/03 05:05:31;;;;;;;8.00;2.20;;;2.40;99.90;;;;;;5047516;28;20202;-81
2021/04/03 05:07:56;;;;;;;3.43;1.20;;;2.30;99.90;;;;;;5048609;28;20206;-79
2021/04/03 05:10:22;;;;;;;0.80;0.50;;;2.30;99.90;;;;;;5044772;28;20232;-79
2021/04/03 05:12:48;;;;;;;2.83;1.13;;;2.40;99.90;;;;;;5048817;28;20598;-79
2021/04/03 05:15:13;;;;;;;0.87;0.73;;;2.50;99.90;;;;;;5048993;28;20182;-81
2021/04/03 05:17:39;;;;;;;3.13;0.97;;;2.40;99.90;;;;;;5048012;28;20206;-80
2021/04/03 05:20:05;;;;;;;3.57;0.80;;;2.50;99.90;;;;;;5048151;28;20281;-80
2021/04/03 05:22:31;;;;;;;1.20;0.83;;;2.50;99.90;;;;;;5048580;28;20253;-80
2021/04/03 05:24:56;;;;;;;7.13;1.43;;;2.50;99.90;;;;;;5046868;28;20691;-80
2021/04/03 05:27:22;;;;;;;0.70;0.60;;;2.50;99.90;;;;;;5043997;28;20310;-79
2021/04/03 05:29:48;;;;;;;6.20;1.47;;;2.60;99.90;;;;;;5046680;28;20610;-79
2021/04/03 05:32:13;;;;;;;4.80;1.00;;;2.70;99.90;;;;;;5047977;28;20170;-79
2021/04/03 05:34:39;;;;;;;4.23;1.30;;;2.60;99.90;;;;;;5048986;28;20265;-80
2021/04/03 05:37:05;;;;;;;2.63;1.20;;;2.60;99.90;;;;;;5046956;28;20699;-79
2021/04/03 05:39:30;;;;;;;3.80;1.60;;;2.80;99.90;;;;;;5046908;28;20201;-79
2021/04/03 05:41:56;;;;;;;1.67;0.80;;;2.70;99.90;;;;;;5048048;28;20201;-79
2021/04/03 05:44:22;;;;;;;1.80;1.00;;;2.70;99.90;;;;;;5046577;28;20206;-80
2021/04/03 05:46:49;;;;;;;3.33;0.93;;;2.80;99.90;;;;;;5046178;28;20209;-79
2021/04/03 05:49:17;;;;;;;2.30;0.97;;;2.80;99.90;;;;;;5046576;28;20190;-79
2021/04/03 05:51:43;;;;;;;3.50;1.23;;;2.80;99.90;;;;;;5044531;28;20252;-79
2021/04/03 05:54:09;;;;;;;1.90;1.43;;;2.90;99.90;;;;;;5046063;28;20185;-80
2021/04/03 05:56:35;;;;;;;0.73;0.70;;;3.10;99.90;;;;;;5046037;28;20178;-81
2021/04/03 05:59:01;;;;;;;3.40;2.23;;;3.00;99.90;;;;;;5049181;28;20185;-80
2021/04/03 06:01:27;;;;;;;3.47;0.90;;;3.00;99.90;;;;;;5047362;28;20183;-79
2021/04/03 06:03:55;;;;;;;2.97;1.00;;;3.00;99.90;;;;;;5047384;28;20182;-79
2021/04/03 06:06:25;;;;;;;7.33;3.00;;;3.00;99.90;;;;;;5047678;28;20190;-80
2021/04/03 06:08:52;;;;;;;5.27;2.73;;;3.10;99.90;;;;;;5046626;28;20186;-80
2021/04/03 06:11:20;;;;;;;2.53;1.50;;;3.30;99.90;;;;;;5046518;28;20185;-79
2021/04/03 06:14:06;;;;;;;2.90;1.40;;;3.50;99.90;;;;;;5046874;28;20563;-79
2021/04/03 06:16:42;;;;;;;2.70;1.50;;;3.80;99.90;;;;;;5047753;28;20194;-79
2021/04/03 06:19:27;;;;;;;2.03;1.67;;;3.90;99.90;;;;;;5048055;28;20670;-79
2021/04/03 06:21:52;;;;;;;3.80;2.33;;;4.00;99.90;;;;;;5046701;28;20221;-79
2021/04/03 06:24:22;;;;;;;6.37;2.67;;;4.10;99.90;;;;;;5046208;28;20244;-80
2021/04/03 06:27:01;;;;;;;3.20;1.77;;;4.30;99.90;;;;;;5047266;28;20297;-80
2021/04/03 06:29:46;;;;;;;2.73;1.27;;;4.30;99.90;;;;;;5047508;28;20186;-79
2021/04/03 06:32:28;;;;;;;4.27;1.93;;;4.50;99.90;;;;;;5045924;28;20221;-80
2021/04/03 06:34:54;;;;;;;5.43;1.17;;;4.60;99.90;;;;;;5046543;28;20279;-79
2021/04/03 06:37:28;;;;;;;1.47;0.80;;;4.50;99.90;;;;;;5046208;28;20197;-80
2021/04/03 06:40:03;;;;;;;3.40;1.80;;;4.60;99.90;;;;;;5045261;28;20194;-79
2021/04/03 06:42:44;;;;;;;1.17;1.00;;;4.60;99.90;;;;;;5047206;28;20239;-79
2021/04/03 06:45:26;;;;;;;1.07;0.63;;;4.60;99.90;;;;;;5043308;28;20214;-79
2021/04/03 06:47:55;;;;;;;1.63;1.20;;;4.60;99.90;;;;;;5045485;28;20220;-79
2021/04/03 06:50:22;;;;;;;4.17;1.40;;;4.70;99.90;;;;;;5045493;28;20193;-80
2021/04/03 06:52:48;;;;;;;0.70;0.70;;;4.50;99.90;;;;;;5044156;28;20190;-79
2021/04/03 06:55:16;;;;;;;1.87;1.10;;;4.50;99.90;;;;;;5045540;28;20174;-79
2021/04/03 06:57:44;;;;;;;3.33;1.50;;;4.70;99.90;;;;;;5036376;28;20238;-79
2021/04/03 07:00:12;;;;;;;2.03;1.60;;;4.70;99.90;;;;;;5044200;28;20263;-80
2021/04/03 07:02:45;;;;;;;2.80;1.50;;;4.90;99.90;;;;;;5037405;28;20277;-80
2021/04/03 07:05:13;;;;;;;5.03;2.30;;;5.10;99.90;;;;;;5040504;28;20206;-79
2021/04/03 07:07:43;;;;;;;1.13;0.87;;;5.40;99.90;;;;;;5043628;28;20202;-80
2021/04/03 07:10:11;;;;;;;1.87;1.13;;;5.60;99.90;;;;;;5043966;28;20186;-80
2021/04/03 07:12:39;;;;;;;4.80;2.43;;;5.90;99.90;;;;;;5043673;28;20170;-80
2021/04/03 07:15:06;;;;;;;4.47;2.10;;;6.10;99.90;;;;;;5043291;28;20182;-80
2021/04/03 07:17:35;;;;;;;2.57;1.30;;;6.30;99.90;;;;;;5042928;28;20202;-80
2021/04/03 07:20:01;;;;;;;3.17;1.70;;;6.40;99.90;;;;;;5045114;28;20197;-81
2021/04/03 07:22:28;;;;;;;1.63;1.13;;;6.40;99.90;;;;;;5045687;28;20309;-81
2021/04/03 07:24:55;;;;;;;2.30;1.23;;;6.30;99.90;;;;;;5045703;28;20222;-81
2021/04/03 07:27:22;;;;;;;1.67;1.40;;;6.20;99.90;;;;;;5046161;28;20202;-80
2021/04/03 07:29:51;;;;;;;1.43;1.33;;;6.00;99.90;;;;;;5045666;28;20565;-80
2021/04/03 07:32:32;;;;;;;3.17;1.47;;;5.90;99.90;;;;;;5045125;28;20261;-80
2021/04/03 07:34:58;;;;;;;4.77;1.57;;;6.10;99.90;;;;;;5044363;28;20186;-80
2021/04/03 07:37:35;;;;;;;3.20;1.57;;;6.20;99.90;;;;;;5044646;28;20202;-80
2021/04/03 07:40:02;;;;;;;3.83;1.37;;;6.40;99.90;;;;;;5043405;28;20213;-81
2021/04/03 07:42:36;;;;;;;3.27;1.87;;;6.60;99.90;;;;;;5043044;28;20178;-79
2021/04/03 07:45:05;;;;;;;2.87;2.03;;;6.70;99.90;;;;;;5044909;28;20898;-80
2021/04/03 07:47:46;;;;;;;2.67;1.47;;;6.80;99.90;;;;;;5044132;28;20242;-79
2021/04/03 07:50:11;;;;;;;4.10;1.33;;;6.80;99.90;;;;;;5045598;28;20223;-80
2021/04/03 07:52:54;;;;;;;1.23;1.13;;;6.80;99.90;;;;;;5045243;28;20179;-82
2021/04/03 07:55:36;;;;;;;2.63;1.73;;;6.80;99.90;;;;;;5042035;28;20310;-81
2021/04/03 07:58:30;;;;;;;2.07;1.73;;;6.90;99.90;;;;;;5045849;28;20738;-81
2021/04/03 08:00:59;;;;;;;1.80;1.30;;;7.00;99.90;;;;;;5042447;28;20178;-77
2021/04/03 08:03:27;;;;;;;1.53;1.13;;;7.20;99.90;;;;;;5045566;28;21181;-78
2021/04/03 08:06:04;;;;;;;2.43;1.20;;;7.20;99.90;;;;;;5045692;28;20217;-77
2021/04/03 08:08:32;;;;;;;1.87;1.33;;;7.40;99.90;;;;;;5045195;28;20267;-78
2021/04/03 08:11:10;;;;;;;7.00;1.60;;;7.50;99.90;;;;;;5046572;28;20198;-78
2021/04/03 08:13:39;;;;;;;3.70;1.90;;;7.40;99.90;;;;;;5045582;28;20629;-78
2021/04/03 08:16:05;;;;;;;3.70;1.73;;;7.50;99.90;;;;;;5046600;28;20273;-77
2021/04/03 08:18:33;;;;;;;2.10;1.37;;;7.80;99.90;;;;;;5047692;28;20248;-79
2021/04/03 08:20:59;;;;;;;3.00;1.73;;;7.80;99.90;;;;;;5047321;28;20190;-78
2021/04/03 08:23:35;;;;;;;1.90;1.70;;;7.80;99.90;;;;;;5046828;28;20674;-78
2021/04/03 08:26:01;;;;;;;5.87;2.13;;;8.00;99.90;;;;;;5047083;28;20205;-78
2021/04/03 08:28:26;;;;;;;2.30;1.23;;;8.00;99.90;;;;;;5047262;28;20202;-78
2021/04/03 08:30:52;;;;;;;3.27;1.60;;;8.00;99.90;;;;;;5046748;28;20192;-79
2021/04/03 08:33:19;;;;;;;5.63;1.87;;;8.00;99.90;;;;;;5047148;28;20210;-77
2021/04/03 08:35:47;;;;;;;1.13;1.07;;;8.00;99.90;;;;;;5047214;28;20178;-77
2021/04/03 08:38:25;;;;;;;1.37;1.13;;;8.10;99.90;;;;;;5044663;28;20285;-76
2021/04/03 08:40:55;;;;;;;3.70;1.27;;;8.20;99.90;;;;;;5042731;28;20178;-77
2021/04/03 08:43:24;;;;;;;5.63;1.07;;;8.40;99.90;;;;;;5040492;28;20212;-76
2021/04/03 08:45:50;;;;;;;5.00;1.80;;;8.50;99.90;;;;;;5041181;28;20210;-76
2021/04/03 08:48:16;;;;;;;2.90;1.83;;;8.60;99.90;;;;;;5040201;28;20279;-75
2021/04/03 08:50:44;;;;;;;3.23;1.53;;;8.60;99.90;;;;;;5042206;28;20624;-76
2021/04/03 08:53:10;;;;;;;2.70;1.60;;;8.60;99.90;;;;;;5042149;28;20190;-77
2021/04/03 08:55:36;;;;;;;3.87;1.63;;;8.90;99.90;;;;;;5041463;28;20193;-75
2021/04/03 08:58:03;;;;;;;3.80;1.40;;;9.10;99.90;;;;;;5042055;28;20206;-75
2021/04/03 09:00:30;;;;;;;2.53;1.80;;;9.20;99.90;;;;;;5042983;28;21268;-77
2021/04/03 09:02:57;;;;;;;1.97;1.33;;;9.30;99.90;;;;;;5044310;28;20190;-77
2021/04/03 09:05:23;;;;;;;4.40;1.60;;;9.50;99.90;;;;;;5043180;28;20291;-77
2021/04/03 09:07:49;;;;;;;2.20;1.60;;;9.60;99.90;;;;;;5042532;28;20695;-77
2021/04/03 09:10:17;;;;;;;3.27;1.07;;;9.90;99.90;;;;;;5045587;28;20178;-77
2021/04/03 09:12:45;;;;;;;4.63;1.33;;;9.80;99.90;;;;;;5046625;28;20178;-77
2021/04/03 09:15:12;;;;;;;4.90;2.03;;;9.90;99.90;;;;;;5048864;28;20272;-77
2021/04/03 09:17:52;;;;;;;2.70;1.30;;;9.90;99.90;;;;;;5048051;28;20206;-77
2021/04/03 09:20:28;;;;;;;3.90;1.27;;;9.80;99.90;;;;;;5046922;28;20277;-78
2021/04/03 09:23:05;;;;;;;4.57;1.27;;;9.80;99.90;;;;;;5048185;28;20197;-77
2021/04/03 09:25:31;;;;;;;6.47;1.77;;;9.90;99.90;;;;;;5048213;28;20217;-77
2021/04/03 09:28:15;;;;;;;1.07;0.97;;;9.90;99.90;;;;;;5047587;28;20259;-78
2021/04/03 09:30:45;;;;;;;5.60;1.27;;;10.10;99.90;;;;;;5047810;28;20179;-77
2021/04/03 09:33:25;;;;;;;2.40;0.80;;;9.90;99.90;;;;;;5048317;28;20251;-77
2021/04/03 09:35:52;;;;;;;2.40;0.90;;;10.00;99.90;;;;;;5047048;28;20189;-79
2021/04/03 09:39:20;;;;;;;2.47;1.10;;;10.10;99.90;;;;;;5047253;28;20210;-78
2021/04/03 09:41:27;;;;;;;3.57;1.60;;;10.00;99.90;;;;;;5050689;28;20186;-77
2021/04/03 09:43:54;;;;;;;4.50;1.30;;;10.20;99.90;;;;;;5046856;28;20247;-77
2021/04/03 09:46:21;;;;;;;0.83;0.67;;;10.20;99.90;;;;;;5047038;28;20277;-77
2021/04/03 09:48:47;;;;;;;1.87;1.10;;;10.20;99.90;;;;;;5045648;28;20295;-76
2021/04/03 09:51:13;;;;;;;3.27;1.40;;;10.30;99.90;;;;;;5046091;28;20186;-76
2021/04/03 09:53:39;;;;;;;1.77;1.23;;;10.50;99.90;;;;;;5048689;28;20213;-77
2021/04/03 09:56:06;;;;;;;1.20;1.10;;;10.60;99.90;;;;;;5047064;28;20331;-76
2021/04/03 09:58:32;;;;;;;4.20;1.57;;;10.70;99.90;;;;;;5046564;28;20201;-77
2021/04/03 10:00:57;;;;;;;4.97;1.00;;;10.70;99.90;;;;;;5046599;28;20190;-77
2021/04/03 10:03:24;;;;;;;2.03;1.10;;;10.80;99.90;;;;;;5048146;28;20263;-77
2021/04/03 10:05:50;;;;;;;2.77;0.93;;;11.00;99.90;;;;;;5046592;28;20308;-75
2021/04/03 10:08:15;;;;;;;13.50;12.20;;;11.10;99.90;;;;;;5049080;28;20285;-77
2021/04/03 10:10:42;;;;;;;4.93;4.47;;;11.30;99.90;;;;;;5049072;28;20186;-76
2021/04/03 10:13:08;;;;;;;2.67;0.90;;;11.30;99.90;;;;;;5050241;28;20273;-77
2021/04/03 10:15:36;;;;;;;2.73;1.57;;;11.50;99.90;;;;;;5049638;28;20189;-77
2021/04/03 10:18:05;;;;;;;1.10;0.80;;;11.70;99.90;;;;;;5050420;28;20220;-75
2021/04/03 10:20:32;;;;;;;2.70;1.97;;;11.70;99.90;;;;;;5048487;28;20188;-75
2021/04/03 10:22:57;;;;;;;1.43;1.03;;;12.00;99.90;;;;;;5047683;28;20273;-77
2021/04/03 10:25:23;;;;;;;3.03;2.63;;;11.40;99.90;;;;;;5043971;28;20301;-73
2021/04/03 10:27:49;;;;;;;1.87;1.10;;;11.30;99.90;;;;;;5042286;28;20717;-74
2021/04/03 10:30:15;;;;;;;2.83;0.90;;;11.40;99.90;;;;;;5041736;28;20181;-74
2021/04/03 10:32:40;;;;;;;1.00;0.60;;;11.30;99.90;;;;;;5046677;28;20177;-73
2021/04/03 10:35:07;;;;;;;0.77;0.70;;;11.30;99.90;;;;;;5044395;28;20578;-74
2021/04/03 10:37:33;;;;;;;1.03;0.63;;;11.10;99.90;;;;;;5042499;28;20774;-75
2021/04/03 10:39:58;;;;;;;1.17;0.47;;;11.10;99.90;;;;;;5041446;28;20752;-76
2021/04/03 10:42:24;;;;;;;2.50;1.57;;;11.10;99.90;;;;;;5041129;28;20240;-76
2021/04/03 10:44:49;;;;;;;1.53;0.70;;;11.50;99.90;;;;;;5041447;28;20252;-76
2021/04/03 10:47:15;;;;;;;0.70;0.60;;;11.70;99.90;;;;;;5042334;28;20249;-74
2021/04/03 10:49:40;;;;;;;0.70;0.60;;;11.60;99.90;;;;;;5042853;28;20178;-76
2021/04/03 10:52:06;;;;;;;2.00;0.60;;;11.50;99.90;;;;;;5042381;28;20321;-76
2021/04/03 10:54:32;;;;;;;1.50;0.60;;;11.70;99.90;;;;;;5042835;28;20191;-76
2021/04/03 10:56:57;;;;;;;1.40;0.70;;;11.20;99.60;;;;;;5042139;28;20221;-76
2021/04/03 10:59:23;;;;;;;1.33;0.50;;;11.10;99.90;;;;;;5042851;28;20655;-76
2021/04/03 11:01:49;;;;;;;1.80;0.77;;;11.30;99.90;;;;;;5040933;28;20190;-76
2021/04/03 11:04:14;;;;;;;0.53;0.53;;;11.70;99.90;;;;;;5042489;28;20174;-76
2021/04/03 11:06:40;;;;;;;1.87;0.77;;;11.90;95.70;;;;;;5041960;28;20185;-76
2021/04/03 11:09:06;;;;;;;2.00;0.60;;;11.80;95.80;;;;;;5039775;28;20316;-76
2021/04/03 11:11:32;;;;;;;0.73;0.53;;;11.40;95.70;;;;;;5041804;28;20182;-75
2021/04/03 11:13:58;;;;;;;1.30;0.57;;;11.00;96.20;;;;;;5042795;28;20185;-76
2021/04/03 11:16:23;;;;;;;0.50;0.50;;;10.80;97.30;;;;;;5042951;28;20179;-76
2021/04/03 11:18:49;;;;;;;0.77;0.40;;;11.00;97.40;;;;;;5040597;28;20643;-76
2021/04/03 11:21:15;;;;;;;1.53;0.53;;;11.20;96.50;;;;;;5041860;28;20182;-76
2021/04/03 11:23:40;;;;;;;0.20;0.20;;;11.50;96.20;;;;;;5041944;28;20182;-75
2021/04/03 11:26:06;;;;;;;0.47;0.30;;;11.70;94.80;;;;;;5041984;28;20680;-75
2021/04/03 11:28:31;;;;;;;0.63;0.40;;;11.90;93.50;;;;;;5042026;28;20202;-76
2021/04/03 11:30:57;;;;;;;0.40;0.30;;;12.00;93.60;;;;;;5041504;28;20576;-75
2021/04/03 11:33:22;;;;;;;0.80;0.50;;;12.00;92.80;;;;;;5040388;28;20599;-74
2021/04/03 11:35:50;;;;;;;0.83;0.60;;;11.80;92.10;;;;;;5041366;28;20615;-76
2021/04/03 11:38:15;;;;;;;0.40;0.40;;;11.50;93.20;;;;;;5042788;28;20198;-76
2021/04/03 11:40:41;;;;;;;1.30;0.63;;;11.40;93.60;;;;;;5041087;28;20208;-75
2021/04/03 11:43:07;;;;;;;0.53;0.30;;;11.30;93.80;;;;;;5042259;28;20186;-76
2021/04/03 11:45:32;;;;;;;0.40;0.37;;;11.30;93.70;;;;;;5041424;28;20463;-76
2021/04/03 11:47:58;;;;;;;0.57;0.30;;;11.40;93.40;;;;;;5041823;28;20734;-76
2021/04/03 11:50:25;;;;;;;0.70;0.60;;;11.80;92.00;;;;;;5033637;28;20214;-76
2021/04/03 11:52:53;;;;;;;0.17;0.17;;;11.80;90.30;;;;;;5041455;28;20225;-73
2021/04/03 11:55:20;;;;;;;0.20;0.20;;;12.00;87.60;;;;;;5041179;28;20194;-76
2021/04/03 11:57:46;;;;;;;1.33;0.33;;;11.80;88.80;;;;;;5041533;28;20734;-75
2021/04/03 12:00:12;;;;;;;2.17;0.50;;;11.70;89.00;;;;;;5039735;28;20186;-75
2021/04/03 12:02:38;;;;;;;0.50;0.50;;;11.70;86.50;;;;;;5041289;28;20273;-75
2021/04/03 12:05:05;;;;;;;0.30;0.30;;;11.90;82.10;;;;;;5040962;28;20221;-75
2021/04/03 12:07:35;;;;;;;0.30;0.27;;;11.70;81.10;;;;;;5041209;28;20281;-75
2021/04/03 12:10:06;;;;;;;0.57;0.40;;;11.70;81.30;;;;;;5041582;28;20324;-76
2021/04/03 12:12:32;;;;;;;0.53;0.47;;;11.90;80.00;;;;;;5041581;28;20263;-75
2021/04/03 12:14:58;;;;;;;1.40;0.70;;;12.30;80.80;;;;;;5041058;28;20552;-76
2021/04/03 12:17:23;;;;;;;0.50;0.50;;;12.30;81.00;;;;;;5040939;28;20267;-74
2021/04/03 12:19:49;;;;;;;0.40;0.30;;;11.90;76.70;;;;;;5041572;28;20664;-76
2021/04/03 12:22:15;;;;;;;0.30;0.20;;;12.10;78.60;;;;;;5039795;28;20570;-75
2021/04/03 12:24:40;;;;;;;0.67;0.40;;;12.00;77.60;;;;;;5040923;28;20272;-75
2021/04/03 12:27:06;;;;;;;0.50;0.50;;;12.20;78.40;;;;;;5040465;28;20280;-74
2021/04/03 12:29:32;;;;;;;0.63;0.40;;;12.30;75.20;;;;;;5041098;28;20206;-76
2021/04/03 12:31:58;;;;;;;0.87;0.70;;;12.30;75.40;;;;;;5040413;28;20220;-76
2021/04/03 12:34:23;;;;;;;0.50;0.30;;;12.70;74.90;;;;;;5041058;28;20174;-75
2021/04/03 12:36:49;;;;;;;0.43;0.30;;;12.70;75.10;;;;;;5040332;28;20680;-76
2021/04/03 12:39:15;;;;;;;1.03;0.50;;;12.70;73.70;;;;;;5041054;28;20178;-76
2021/04/03 12:41:40;;;;;;;0.30;0.30;;;12.20;73.60;;;;;;5040375;28;20185;-75
2021/04/03 12:44:06;;;;;;;2.53;0.50;;;12.00;72.80;;;;;;5041604;28;20273;-82
2021/04/03 12:46:32;;;;;;;0.20;0.20;;;12.30;72.80;;;;;;5042907;28;20264;-81
2021/04/03 12:48:57;;;;;;;0.20;0.20;;;12.40;72.50;;;;;;5045146;28;20399;-82
2021/04/03 12:51:23;;;;;;;0.80;0.43;;;12.90;71.90;;;;;;5047753;28;20178;-78
2021/04/03 12:53:48;;;;;;;0.50;0.50;;;12.50;70.20;;;;;;5047483;28;20201;-78
2021/04/03 12:56:14;;;;;;;0.23;0.23;;;12.20;71.50;;;;;;5047502;28;20190;-78
2021/04/03 12:58:40;;;;;;;1.20;0.40;;;12.30;73.20;;;;;;5047628;28;20625;-78
2021/04/03 13:01:05;;;;;;;0.73;0.53;;;12.30;71.10;;;;;;5048953;28;20196;-78